Time;durP1;ratioP1;P1;durP2;ratioP2;P2;SDS_P1;SDS_P2;PMS_P1;PMS_P2;Temp;Humidity;BMP_temperature;BMP_pressure;BME280_temperature;BME280_humidity;BME280_pressure;Samples;Min_cycle;Max_cycle;Signal;HPM_P1;HPM_P2
2021/11/29 00:00:58;;;;;;;0.05;0.05;;;1.50;99.90;;;;;;5051359;28;20072;-79
2021/11/29 00:03:25;;;;;;;0.30;0.30;;;1.50;99.90;;;;;;5051989;28;20025;-79
2021/11/29 00:05:51;;;;;;;2.95;0.85;;;1.40;99.90;;;;;;5052274;28;20033;-79
2021/11/29 00:08:17;;;;;;;0.80;0.38;;;1.40;99.90;;;;;;5050832;28;20021;-80
2021/11/29 00:10:42;;;;;;;0.00;0.00;;;1.40;99.90;;;;;;5053626;28;20025;-79
2021/11/29 00:13:11;;;;;;;0.00;0.00;;;1.50;99.90;;;;;;5056064;28;20395;-79
2021/11/29 00:15:37;;;;;;;0.00;0.00;;;1.40;99.90;;;;;;5055792;28;20029;-79
2021/11/29 00:18:03;;;;;;;0.20;0.20;;;1.40;99.90;;;;;;5055840;28;20036;-79
2021/11/29 00:20:30;;;;;;;0.38;0.38;;;1.40;99.90;;;;;;5055930;28;20499;-79
2021/11/29 00:22:56;;;;;;;0.10;0.10;;;1.40;99.90;;;;;;5055714;28;20033;-79
2021/11/29 00:25:22;;;;;;;0.08;0.08;;;1.30;99.90;;;;;;5055034;28;20060;-80
2021/11/29 00:27:47;;;;;;;0.20;0.20;;;1.30;99.90;;;;;;5055541;28;20036;-79
2021/11/29 00:30:14;;;;;;;0.38;0.38;;;1.30;99.90;;;;;;5055308;28;20033;-79
2021/11/29 00:32:42;;;;;;;0.20;0.20;;;1.30;99.90;;;;;;5055424;28;20044;-80
2021/11/29 00:35:08;;;;;;;1.05;0.68;;;1.20;99.90;;;;;;5054993;28;20067;-80
2021/11/29 00:37:35;;;;;;;0.22;0.13;;;1.10;99.90;;;;;;5055157;28;20537;-79
2021/11/29 00:40:01;;;;;;;1.48;1.38;;;1.10;99.90;;;;;;5055308;28;20538;-79
2021/11/29 00:42:27;;;;;;;0.90;0.60;;;1.10;99.90;;;;;;5055375;28;20028;-79
2021/11/29 00:44:53;;;;;;;1.55;1.17;;;1.10;99.90;;;;;;5055104;28;20376;-80
2021/11/29 00:47:18;;;;;;;0.00;0.00;;;1.10;99.90;;;;;;5054986;28;20498;-79
2021/11/29 00:49:44;;;;;;;0.13;0.13;;;1.00;99.90;;;;;;5054934;28;20036;-80
2021/11/29 00:52:10;;;;;;;0.10;0.10;;;1.00;99.90;;;;;;5054905;28;20035;-79
2021/11/29 00:54:36;;;;;;;2.97;2.35;;;1.00;99.90;;;;;;5055130;28;20021;-79
2021/11/29 00:57:02;;;;;;;0.00;0.00;;;0.90;99.90;;;;;;5054691;28;20526;-79
2021/11/29 00:59:27;;;;;;;0.05;0.05;;;0.90;99.90;;;;;;5054687;28;20021;-80
2021/11/29 01:01:53;;;;;;;0.30;0.30;;;1.00;99.90;;;;;;5054499;28;20032;-79
2021/11/29 01:04:19;;;;;;;1.05;1.00;;;1.00;99.90;;;;;;5054776;28;20095;-79
2021/11/29 01:06:45;;;;;;;0.00;0.00;;;1.10;99.90;;;;;;5055648;28;20106;-80
2021/11/29 01:09:11;;;;;;;1.05;1.05;;;1.00;99.90;;;;;;5053618;28;20024;-79
2021/11/29 01:11:37;;;;;;;0.00;0.00;;;1.00;99.90;;;;;;5053675;28;20035;-79
2021/11/29 01:14:03;;;;;;;0.45;0.45;;;0.90;99.90;;;;;;5054895;28;20041;-79
2021/11/29 01:16:29;;;;;;;3.95;0.57;;;0.80;99.90;;;;;;5054957;28;20028;-79
2021/11/29 01:18:54;;;;;;;0.00;0.00;;;0.80;99.90;;;;;;5054349;28;20104;-79
2021/11/29 01:21:20;;;;;;;0.65;0.65;;;0.80;99.90;;;;;;5054021;28;20033;-80
2021/11/29 01:23:46;;;;;;;0.13;0.13;;;0.80;99.90;;;;;;5054188;28;20025;-79
2021/11/29 01:26:11;;;;;;;0.55;0.55;;;0.80;99.90;;;;;;5053030;28;20057;-79
2021/11/29 01:28:38;;;;;;;0.00;0.00;;;0.80;99.90;;;;;;5055029;28;20064;-79
2021/11/29 01:31:04;;;;;;;0.00;0.00;;;0.70;99.90;;;;;;5054338;28;20361;-79
2021/11/29 01:33:31;;;;;;;0.47;0.47;;;0.80;99.90;;;;;;5053966;28;20021;-79
2021/11/29 01:35:56;;;;;;;1.00;0.32;;;0.70;99.90;;;;;;5054298;28;20400;-79
2021/11/29 01:38:22;;;;;;;0.13;0.13;;;0.80;99.90;;;;;;5054405;28;20099;-79
2021/11/29 01:40:48;;;;;;;0.55;0.55;;;0.80;99.90;;;;;;5053252;28;20380;-79
2021/11/29 01:43:16;;;;;;;0.85;0.47;;;0.80;99.90;;;;;;5054350;28;20014;-79
2021/11/29 01:45:45;;;;;;;0.13;0.13;;;0.80;99.90;;;;;;5054125;28;20029;-80
2021/11/29 01:48:12;;;;;;;0.38;0.38;;;0.80;99.90;;;;;;5053587;28;20025;-79
2021/11/29 01:50:40;;;;;;;1.13;0.75;;;0.90;99.90;;;;;;5053916;28;20112;-80
2021/11/29 01:53:06;;;;;;;0.10;0.10;;;0.90;99.90;;;;;;5053789;28;20415;-79
2021/11/29 01:55:34;;;;;;;0.00;0.00;;;1.00;99.90;;;;;;5053807;28;20028;-79
2021/11/29 01:57:59;;;;;;;0.17;0.17;;;1.00;99.90;;;;;;5053852;28;20017;-79
2021/11/29 02:00:30;;;;;;;0.05;0.05;;;1.00;99.90;;;;;;5052021;28;20044;-79
2021/11/29 02:02:56;;;;;;;0.15;0.15;;;1.10;99.90;;;;;;5053509;28;20021;-79
2021/11/29 02:05:24;;;;;;;0.10;0.10;;;1.10;99.90;;;;;;5052557;28;20037;-79
2021/11/29 02:07:50;;;;;;;0.00;0.00;;;1.10;99.90;;;;;;5053201;28;20028;-79
2021/11/29 02:10:18;;;;;;;0.57;0.57;;;1.20;99.90;;;;;;5051835;28;20443;-79
2021/11/29 02:12:45;;;;;;;0.38;0.20;;;1.10;99.90;;;;;;5053689;28;20052;-79
2021/11/29 02:15:12;;;;;;;0.00;0.00;;;1.20;99.90;;;;;;5053936;28;20100;-80
2021/11/29 02:17:39;;;;;;;0.00;0.00;;;1.20;99.90;;;;;;5053425;28;20517;-79
2021/11/29 02:20:06;;;;;;;0.00;0.00;;;1.20;99.90;;;;;;5053623;28;20037;-79
2021/11/29 02:22:32;;;;;;;0.05;0.05;;;1.20;99.90;;;;;;5053479;28;20056;-79
2021/11/29 02:24:58;;;;;;;0.03;0.03;;;1.20;99.90;;;;;;5053001;28;20510;-79
2021/11/29 02:27:24;;;;;;;0.00;0.00;;;1.30;99.90;;;;;;5053471;28;20017;-79
2021/11/29 02:29:54;;;;;;;0.73;0.73;;;1.30;99.90;;;;;;5053329;28;20033;-79
2021/11/29 02:32:20;;;;;;;0.00;0.00;;;1.40;99.90;;;;;;5053229;28;20017;-79
2021/11/29 02:34:46;;;;;;;0.40;0.40;;;1.50;99.90;;;;;;5052738;28;20097;-79
2021/11/29 02:37:13;;;;;;;1.55;0.32;;;1.60;99.90;;;;;;5053176;28;20104;-80
2021/11/29 02:39:41;;;;;;;0.05;0.05;;;1.70;99.90;;;;;;5051519;28;20032;-79
2021/11/29 02:42:09;;;;;;;0.30;0.30;;;1.80;99.90;;;;;;5053103;28;20513;-79
2021/11/29 02:44:35;;;;;;;1.65;1.08;;;1.90;99.90;;;;;;5053385;28;20047;-79
2021/11/29 02:47:01;;;;;;;0.65;0.65;;;1.90;99.90;;;;;;5053119;28;20095;-80
2021/11/29 02:49:27;;;;;;;0.00;0.00;;;1.80;99.90;;;;;;5052570;28;20096;-79
2021/11/29 02:52:15;;;;;;;0.43;0.43;;;1.80;99.90;;;;;;5052666;28;20063;-79
2021/11/29 02:54:43;;;;;;;1.25;0.90;;;1.70;99.90;;;;;;5052867;28;20026;-79
2021/11/29 02:57:12;;;;;;;0.00;0.00;;;1.50;99.90;;;;;;5052689;28;20025;-79
2021/11/29 02:59:40;;;;;;;0.95;0.47;;;1.50;99.90;;;;;;5050929;28;20035;-79
2021/11/29 03:02:12;;;;;;;0.47;0.47;;;1.30;99.90;;;;;;5052418;28;20029;-79
2021/11/29 03:04:38;;;;;;;0.00;0.00;;;1.30;99.90;;;;;;5051589;28;20029;-79
2021/11/29 03:07:05;;;;;;;0.10;0.10;;;1.20;99.90;;;;;;5052814;28;20057;-79
2021/11/29 03:09:32;;;;;;;0.20;0.20;;;1.20;99.90;;;;;;5049834;28;20032;-80
2021/11/29 03:11:58;;;;;;;0.00;0.00;;;1.10;99.90;;;;;;5052938;28;20055;-79
2021/11/29 03:14:24;;;;;;;0.98;0.98;;;1.00;99.90;;;;;;5052283;28;20016;-79
2021/11/29 03:16:53;;;;;;;9.18;1.30;;;1.10;99.90;;;;;;5051284;28;20021;-79
2021/11/29 03:19:18;;;;;;;0.70;0.70;;;1.10;99.90;;;;;;5052428;28;20036;-79
2021/11/29 03:21:44;;;;;;;0.00;0.00;;;1.20;99.90;;;;;;5051406;28;20029;-79
2021/11/29 03:24:10;;;;;;;0.47;0.47;;;1.30;99.90;;;;;;5051134;28;20033;-79
2021/11/29 03:26:38;;;;;;;0.00;0.00;;;1.40;99.90;;;;;;5052400;28;20124;-79
2021/11/29 03:29:10;;;;;;;0.00;0.00;;;1.50;99.90;;;;;;5053102;28;20061;-80
2021/11/29 03:31:37;;;;;;;0.38;0.38;;;1.60;99.90;;;;;;5052765;28;20021;-79
2021/11/29 03:34:04;;;;;;;0.38;0.20;;;1.60;99.90;;;;;;5052164;28;20074;-79
2021/11/29 03:36:33;;;;;;;2.85;1.55;;;1.70;99.90;;;;;;5052534;28;20040;-80
2021/11/29 03:39:14;;;;;;;0.00;0.00;;;1.70;99.90;;;;;;5051518;28;20048;-79
2021/11/29 03:41:42;;;;;;;0.40;0.40;;;1.70;99.90;;;;;;5052578;28;20032;-79
2021/11/29 03:44:08;;;;;;;0.52;0.20;;;1.70;99.90;;;;;;5052606;28;20025;-79
2021/11/29 03:46:34;;;;;;;0.10;0.10;;;1.70;99.90;;;;;;5055514;28;20082;-79
2021/11/29 03:49:01;;;;;;;0.20;0.20;;;1.60;99.90;;;;;;5056229;28;20036;-79
2021/11/29 03:51:26;;;;;;;0.75;0.75;;;1.70;99.90;;;;;;5056193;28;20480;-79
2021/11/29 03:53:52;;;;;;;0.63;0.20;;;1.70;99.90;;;;;;5055576;28;20031;-80
2021/11/29 03:56:18;;;;;;;0.00;0.00;;;1.80;99.90;;;;;;5055073;28;20033;-79
2021/11/29 03:58:44;;;;;;;7.13;0.73;;;1.80;99.90;;;;;;5056414;28;20025;-79
2021/11/29 04:01:10;;;;;;;0.00;0.00;;;1.90;99.90;;;;;;5055426;28;20025;-79
2021/11/29 04:03:36;;;;;;;0.10;0.10;;;1.90;99.90;;;;;;5055853;28;20048;-79
2021/11/29 04:06:01;;;;;;;2.83;1.95;;;1.90;99.90;;;;;;5055895;28;20033;-79
2021/11/29 04:08:27;;;;;;;0.00;0.00;;;1.90;99.90;;;;;;5055729;28;20507;-79
2021/11/29 04:10:53;;;;;;;0.00;0.00;;;1.90;99.90;;;;;;5054766;28;20476;-79
2021/11/29 04:13:19;;;;;;;0.32;0.32;;;1.90;99.90;;;;;;5055635;28;20052;-79
2021/11/29 04:15:45;;;;;;;0.17;0.17;;;2.00;99.90;;;;;;5055384;28;20052;-79
2021/11/29 04:18:11;;;;;;;0.38;0.38;;;2.00;99.90;;;;;;5055443;28;20025;-79
2021/11/29 04:20:36;;;;;;;1.65;0.57;;;2.10;99.90;;;;;;5055717;28;20033;-79
2021/11/29 04:23:03;;;;;;;0.80;0.52;;;2.20;99.90;;;;;;5055157;28;20056;-80
2021/11/29 04:28:27;;;;;;;0.00;0.00;;;2.40;99.90;;;;;;5054830;28;20033;-79
2021/11/29 04:30:53;;;;;;;0.77;0.77;;;2.50;99.90;;;;;;5053890;28;20036;-79
2021/11/29 04:33:19;;;;;;;0.10;0.10;;;2.60;99.90;;;;;;5055304;28;20032;-79
2021/11/29 04:35:45;;;;;;;0.35;0.35;;;2.60;99.90;;;;;;5055479;28;20029;-79
2021/11/29 04:38:11;;;;;;;0.30;0.25;;;2.70;99.90;;;;;;5055468;28;20487;-79
2021/11/29 04:40:37;;;;;;;0.00;0.00;;;2.70;99.90;;;;;;5055929;28;20074;-79
2021/11/29 04:43:03;;;;;;;0.10;0.10;;;2.70;99.90;;;;;;5055511;28;20029;-79
2021/11/29 04:45:30;;;;;;;0.00;0.00;;;2.70;99.90;;;;;;5055505;28;20483;-80
2021/11/29 04:47:56;;;;;;;0.10;0.10;;;2.60;99.90;;;;;;5054927;28;20026;-80
2021/11/29 04:50:24;;;;;;;0.08;0.03;;;2.60;99.90;;;;;;5055261;28;20070;-80
2021/11/29 04:52:50;;;;;;;0.50;0.40;;;2.50;99.90;;;;;;5055167;28;20033;-80
2021/11/29 04:55:16;;;;;;;0.70;0.52;;;2.40;99.90;;;;;;5055253;28;20027;-80
2021/11/29 04:57:42;;;;;;;0.20;0.20;;;2.30;99.90;;;;;;5054584;28;20020;-80
2021/11/29 05:00:10;;;;;;;0.90;0.90;;;2.30;99.90;;;;;;5054090;28;20492;-80
2021/11/29 05:02:36;;;;;;;0.20;0.20;;;2.30;99.90;;;;;;5054634;28;20032;-80
2021/11/29 05:05:03;;;;;;;0.75;0.70;;;2.30;99.90;;;;;;5054658;28;20090;-80
2021/11/29 05:07:29;;;;;;;0.10;0.10;;;2.40;99.90;;;;;;5055017;28;20025;-80
2021/11/29 05:09:54;;;;;;;0.13;0.13;;;2.30;99.90;;;;;;5053697;28;20506;-80
2021/11/29 05:12:20;;;;;;;0.25;0.25;;;2.30;99.90;;;;;;5053471;28;20017;-80
2021/11/29 05:14:47;;;;;;;0.00;0.00;;;2.30;99.90;;;;;;5054578;28;20530;-80
2021/11/29 05:17:16;;;;;;;1.25;1.00;;;2.30;99.90;;;;;;5054681;28;20054;-79
2021/11/29 05:19:42;;;;;;;0.40;0.38;;;2.30;99.90;;;;;;5054541;28;20079;-79
2021/11/29 05:22:07;;;;;;;0.30;0.30;;;2.30;99.90;;;;;;5054604;28;20484;-79
2021/11/29 05:24:34;;;;;;;0.20;0.20;;;2.30;99.90;;;;;;5054365;28;20043;-80
2021/11/29 05:27:00;;;;;;;0.00;0.00;;;2.30;99.90;;;;;;5054738;28;20463;-79
2021/11/29 05:29:26;;;;;;;0.45;0.45;;;2.30;99.90;;;;;;5054483;28;20032;-79
2021/11/29 05:31:52;;;;;;;0.95;0.90;;;2.30;99.90;;;;;;5054503;28;20033;-80
2021/11/29 05:34:18;;;;;;;0.68;0.43;;;2.40;99.90;;;;;;5054087;28;20035;-80
2021/11/29 05:36:45;;;;;;;1.27;0.95;;;2.40;99.90;;;;;;5054472;28;20040;-79
2021/11/29 05:39:14;;;;;;;0.47;0.47;;;2.40;99.90;;;;;;5054340;28;20029;-79
2021/11/29 05:41:41;;;;;;;0.00;0.00;;;2.40;99.90;;;;;;5054366;28;20044;-79
2021/11/29 05:44:07;;;;;;;0.03;0.03;;;2.40;99.90;;;;;;5052882;28;20025;-79
2021/11/29 05:46:32;;;;;;;0.20;0.20;;;2.40;99.90;;;;;;5054150;28;20029;-79
2021/11/29 05:48:58;;;;;;;0.00;0.00;;;2.30;99.90;;;;;;5053792;28;20112;-80
2021/11/29 05:51:24;;;;;;;0.17;0.17;;;2.20;99.90;;;;;;5054128;28;20051;-79
2021/11/29 05:53:50;;;;;;;0.10;0.10;;;2.20;99.90;;;;;;5054187;28;20020;-79
2021/11/29 05:56:16;;;;;;;0.95;0.32;;;2.20;99.90;;;;;;5053146;28;20017;-79
2021/11/29 05:58:42;;;;;;;8.63;0.90;;;2.10;99.90;;;;;;5048583;28;20033;-79
2021/11/29 06:01:08;;;;;;;1.00;0.90;;;2.10;99.90;;;;;;5051927;28;20037;-79
2021/11/29 06:03:34;;;;;;;0.05;0.05;;;2.20;99.90;;;;;;5053124;28;20029;-79
2021/11/29 06:06:00;;;;;;;0.00;0.00;;;2.10;99.90;;;;;;5053748;28;20074;-79
2021/11/29 06:08:26;;;;;;;1.25;0.52;;;2.10;99.90;;;;;;5052682;28;20074;-79
2021/11/29 06:10:52;;;;;;;0.00;0.00;;;2.10;99.90;;;;;;5053512;28;20438;-79
2021/11/29 06:13:17;;;;;;;0.00;0.00;;;2.10;99.90;;;;;;5052754;28;20021;-79
2021/11/29 06:15:44;;;;;;;0.40;0.40;;;2.00;99.90;;;;;;5051607;28;20488;-79
2021/11/29 06:18:11;;;;;;;0.00;0.00;;;2.10;99.90;;;;;;5053168;28;20029;-80
2021/11/29 06:20:37;;;;;;;0.00;0.00;;;2.00;99.90;;;;;;5053100;28;20032;-80
2021/11/29 06:23:03;;;;;;;0.43;0.43;;;2.00;99.90;;;;;;5053042;28;20048;-80
2021/11/29 06:25:29;;;;;;;0.00;0.00;;;2.00;99.90;;;;;;5052810;28;20061;-80
2021/11/29 06:27:56;;;;;;;0.00;0.00;;;1.90;99.90;;;;;;5052905;28;20017;-80
2021/11/29 06:30:23;;;;;;;0.30;0.30;;;1.90;99.90;;;;;;5052937;28;20462;-80
2021/11/29 06:32:49;;;;;;;0.00;0.00;;;1.90;99.90;;;;;;5048310;28;20487;-79
2021/11/29 06:35:15;;;;;;;0.15;0.05;;;1.90;99.90;;;;;;5052829;28;20478;-80
2021/11/29 06:37:45;;;;;;;1.17;1.08;;;1.90;99.90;;;;;;5052690;28;20025;-78
2021/11/29 06:40:12;;;;;;;0.00;0.00;;;1.90;99.90;;;;;;5051840;28;20568;-82
2021/11/29 06:42:37;;;;;;;0.00;0.00;;;1.80;99.90;;;;;;5052082;28;20032;-82
2021/11/29 06:45:04;;;;;;;0.00;0.00;;;1.80;99.90;;;;;;5050521;28;20438;-82
2021/11/29 06:47:29;;;;;;;0.60;0.60;;;1.80;99.90;;;;;;5050719;28;20411;-81
2021/11/29 06:49:55;;;;;;;0.10;0.10;;;1.70;99.90;;;;;;5051511;28;20025;-82
2021/11/29 06:52:21;;;;;;;1.65;0.85;;;1.70;99.90;;;;;;5066416;28;20035;-82
2021/11/29 06:54:49;;;;;;;0.63;0.52;;;1.70;99.90;;;;;;5055639;28;20031;-82
2021/11/29 06:57:16;;;;;;;0.40;0.40;;;1.70;99.90;;;;;;5066638;28;20013;-82
2021/11/29 06:59:42;;;;;;;0.00;0.00;;;1.80;99.90;;;;;;5051373;28;20033;-82
2021/11/29 07:02:08;;;;;;;0.93;0.70;;;1.90;99.90;;;;;;5051747;28;20028;-81
2021/11/29 07:04:34;;;;;;;0.65;0.47;;;1.90;99.90;;;;;;5052619;28;20037;-83
2021/11/29 07:07:00;;;;;;;0.00;0.00;;;2.00;99.90;;;;;;5067165;28;20036;-81
2021/11/29 07:09:26;;;;;;;0.10;0.10;;;2.10;99.90;;;;;;5046172;28;20507;-82
2021/11/29 07:11:52;;;;;;;0.35;0.35;;;2.10;99.90;;;;;;5051026;28;20064;-80
2021/11/29 07:14:18;;;;;;;0.00;0.00;;;2.20;99.90;;;;;;5049775;28;20116;-79
2021/11/29 07:16:47;;;;;;;0.05;0.05;;;2.20;99.90;;;;;;5053025;28;20112;-80
2021/11/29 07:19:16;;;;;;;0.00;0.00;;;2.30;99.90;;;;;;5053788;28;20449;-80
2021/11/29 07:21:44;;;;;;;0.25;0.25;;;2.40;99.90;;;;;;5056765;28;20381;-80
2021/11/29 07:24:10;;;;;;;0.08;0.08;;;2.50;99.90;;;;;;5056724;28;20029;-80
2021/11/29 07:26:40;;;;;;;0.00;0.00;;;2.50;99.90;;;;;;5054844;28;20067;-80
2021/11/29 07:29:06;;;;;;;0.08;0.08;;;2.50;99.90;;;;;;5052611;28;20025;-80
2021/11/29 07:31:33;;;;;;;0.05;0.05;;;2.50;99.90;;;;;;5056069;28;20033;-80
2021/11/29 07:33:59;;;;;;;0.47;0.47;;;2.50;99.90;;;;;;5055607;28;20380;-80
2021/11/29 07:36:25;;;;;;;0.28;0.28;;;2.60;99.90;;;;;;5053599;28;20014;-80
2021/11/29 07:38:50;;;;;;;0.03;0.03;;;2.70;99.90;;;;;;5051365;28;20036;-80
2021/11/29 07:41:16;;;;;;;0.28;0.28;;;2.70;99.90;;;;;;5054506;28;20021;-81
2021/11/29 07:43:42;;;;;;;0.13;0.13;;;2.80;99.90;;;;;;5056448;28;20033;-80
2021/11/29 07:46:08;;;;;;;0.13;0.10;;;2.80;99.90;;;;;;5049656;28;20029;-80
2021/11/29 07:48:33;;;;;;;0.00;0.00;;;3.00;99.90;;;;;;5051978;28;20062;-80
2021/11/29 07:50:59;;;;;;;0.13;0.13;;;3.20;99.90;;;;;;5052642;28;20029;-80
2021/11/29 07:53:25;;;;;;;0.13;0.13;;;3.40;99.90;;;;;;5057860;28;20025;-80
2021/11/29 07:55:50;;;;;;;0.10;0.10;;;3.60;99.90;;;;;;5061028;28;20060;-80
2021/11/29 07:58:17;;;;;;;0.00;0.00;;;3.70;99.90;;;;;;5057895;28;20033;-81
2021/11/29 08:00:44;;;;;;;0.17;0.17;;;3.80;99.90;;;;;;5054555;28;20040;-81
2021/11/29 08:03:10;;;;;;;0.25;0.10;;;3.80;99.90;;;;;;5052607;28;20044;-81
2021/11/29 08:05:37;;;;;;;4.68;1.17;;;3.80;99.90;;;;;;5054039;28;20029;-82
2021/11/29 08:08:05;;;;;;;0.65;0.38;;;3.90;99.90;;;;;;5054716;28;20033;-85
2021/11/29 08:10:33;;;;;;;0.03;0.03;;;3.90;99.90;;;;;;5054530;28;20066;-82
2021/11/29 08:13:00;;;;;;;0.10;0.10;;;3.90;99.90;;;;;;5055097;28;20021;-80
2021/11/29 08:15:25;;;;;;;0.00;0.00;;;3.90;99.90;;;;;;5051442;28;20056;-82
2021/11/29 08:17:51;;;;;;;0.08;0.08;;;3.90;99.90;;;;;;5055386;28;20044;-81
2021/11/29 08:20:19;;;;;;;0.15;0.15;;;3.80;99.90;;;;;;5054969;28;20096;-85
2021/11/29 08:22:45;;;;;;;0.43;0.43;;;3.90;99.90;;;;;;5059254;28;20096;-83
2021/11/29 08:25:11;;;;;;;2.50;0.25;;;3.80;99.90;;;;;;5054939;28;20064;-83
2021/11/29 08:27:37;;;;;;;0.10;0.10;;;3.90;99.90;;;;;;5049584;28;20114;-84
2021/11/29 08:30:07;;;;;;;0.10;0.10;;;3.90;99.90;;;;;;5059846;28;20373;-82
2021/11/29 08:32:34;;;;;;;0.10;0.10;;;3.90;99.90;;;;;;5048598;28;20665;-83
2021/11/29 08:35:00;;;;;;;0.00;0.00;;;3.90;99.90;;;;;;5056149;28;20025;-81
2021/11/29 08:37:26;;;;;;;0.00;0.00;;;4.00;99.90;;;;;;5053132;28;20044;-83
2021/11/29 08:39:51;;;;;;;0.45;0.30;;;4.00;99.90;;;;;;5051702;28;20036;-83
2021/11/29 08:42:17;;;;;;;0.00;0.00;;;4.00;99.90;;;;;;5053006;28;20044;-84
2021/11/29 08:44:43;;;;;;;0.98;0.68;;;4.10;99.90;;;;;;5052072;28;20029;-83
2021/11/29 08:47:09;;;;;;;0.17;0.17;;;4.10;99.90;;;;;;5059538;28;20539;-81
2021/11/29 08:49:35;;;;;;;0.50;0.38;;;4.10;99.90;;;;;;5058620;28;20423;-82
2021/11/29 08:52:00;;;;;;;2.00;0.77;;;4.10;99.90;;;;;;5053252;28;20031;-81
2021/11/29 08:54:26;;;;;;;0.32;0.32;;;4.20;99.90;;;;;;5058787;28;20036;-81
2021/11/29 08:56:53;;;;;;;0.15;0.15;;;4.20;99.90;;;;;;5061317;28;20549;-81
2021/11/29 08:59:21;;;;;;;0.25;0.25;;;4.20;99.90;;;;;;5052238;28;20155;-81
2021/11/29 09:01:48;;;;;;;0.00;0.00;;;4.20;99.90;;;;;;5052162;28;20032;-81
2021/11/29 09:04:14;;;;;;;0.00;0.00;;;4.30;99.90;;;;;;5052656;28;20108;-82
2021/11/29 09:06:39;;;;;;;0.88;0.65;;;4.30;99.90;;;;;;5054178;28;20194;-81
2021/11/29 09:09:06;;;;;;;0.20;0.20;;;4.30;99.90;;;;;;5051250;28;20048;-80
2021/11/29 09:11:31;;;;;;;0.10;0.10;;;4.40;99.90;;;;;;5054615;28;20100;-82
2021/11/29 09:13:57;;;;;;;0.00;0.00;;;4.40;99.90;;;;;;5049656;28;20096;-80
2021/11/29 09:16:24;;;;;;;0.30;0.30;;;4.40;99.90;;;;;;5047840;28;20048;-80
2021/11/29 09:18:50;;;;;;;1.52;0.50;;;4.40;99.90;;;;;;5055463;28;20064;-81
2021/11/29 09:21:18;;;;;;;0.68;0.68;;;4.40;99.90;;;;;;5053788;28;20404;-81
2021/11/29 09:23:45;;;;;;;0.82;0.57;;;4.40;99.90;;;;;;5053419;28;20501;-81
2021/11/29 09:26:11;;;;;;;0.60;0.60;;;4.40;99.90;;;;;;5051994;28;20041;-80
2021/11/29 09:28:38;;;;;;;0.10;0.10;;;4.50;99.90;;;;;;5056351;28;20029;-81
2021/11/29 09:31:04;;;;;;;0.47;0.47;;;4.50;99.90;;;;;;5049953;28;20025;-81
2021/11/29 09:33:30;;;;;;;0.20;0.20;;;4.50;99.90;;;;;;5048917;28;20025;-83
2021/11/29 09:35:56;;;;;;;0.75;0.75;;;4.50;99.90;;;;;;5051074;28;20017;-79
2021/11/29 09:38:22;;;;;;;0.32;0.32;;;4.50;99.90;;;;;;5051304;28;20552;-78
2021/11/29 09:40:48;;;;;;;2.53;0.75;;;4.60;99.90;;;;;;5059077;28;20033;-82
2021/11/29 09:43:16;;;;;;;0.22;0.22;;;4.80;99.90;;;;;;5060528;28;20043;-82
2021/11/29 09:45:44;;;;;;;0.60;0.60;;;5.00;99.90;;;;;;5056277;28;20028;-81
2021/11/29 09:48:10;;;;;;;0.00;0.00;;;5.10;99.90;;;;;;5048319;28;20029;-80
2021/11/29 09:50:39;;;;;;;0.25;0.25;;;5.20;99.90;;;;;;5047205;28;20029;-85
2021/11/29 09:53:05;;;;;;;0.45;0.45;;;5.10;99.90;;;;;;5051713;28;20024;-84
2021/11/29 09:55:31;;;;;;;1.27;0.40;;;5.20;99.90;;;;;;5051796;28;20036;-84
2021/11/29 09:57:59;;;;;;;0.10;0.10;;;5.40;99.90;;;;;;5053995;28;20017;-84
2021/11/29 10:00:32;;;;;;;1.90;0.65;;;5.60;99.90;;;;;;5048996;28;20120;-84
2021/11/29 10:02:58;;;;;;;0.08;0.08;;;5.70;99.90;;;;;;5054572;28;20055;-82
2021/11/29 10:05:25;;;;;;;0.52;0.20;;;5.70;99.90;;;;;;5049660;28;20394;-82
2021/11/29 10:07:52;;;;;;;0.10;0.10;;;5.60;99.90;;;;;;5050946;28;20021;-82
2021/11/29 10:10:29;;;;;;;0.00;0.00;;;5.70;99.90;;;;;;5046759;28;20479;-80
2021/11/29 10:13:07;;;;;;;0.30;0.30;;;5.60;99.90;;;;;;5043548;28;20136;-81
2021/11/29 10:15:36;;;;;;;2.30;0.77;;;5.60;99.90;;;;;;5050528;28;20068;-79
2021/11/29 10:18:15;;;;;;;1.02;0.20;;;5.70;99.90;;;;;;5050799;28;20055;-80
2021/11/29 10:21:06;;;;;;;0.17;0.17;;;5.80;99.90;;;;;;5052161;28;20040;-84
2021/11/29 10:23:40;;;;;;;0.90;0.85;;;5.90;99.90;;;;;;5046864;28;20033;-81
2021/11/29 10:26:19;;;;;;;0.35;0.25;;;6.00;99.90;;;;;;5051708;28;20095;-82
2021/11/29 10:28:47;;;;;;;0.15;0.15;;;6.20;99.90;;;;;;5052546;28;20551;-79
2021/11/29 10:31:13;;;;;;;0.00;0.00;;;6.10;99.90;;;;;;5046242;28;20028;-78
2021/11/29 10:33:55;;;;;;;1.17;0.98;;;5.90;99.90;;;;;;5052420;28;20040;-79
2021/11/29 10:36:23;;;;;;;0.00;0.00;;;5.90;99.90;;;;;;5051040;28;20074;-79
2021/11/29 10:38:54;;;;;;;0.00;0.00;;;5.90;99.90;;;;;;5051609;28;20032;-79
2021/11/29 10:41:27;;;;;;;0.00;0.00;;;5.90;99.90;;;;;;5050691;28;20021;-79
2021/11/29 10:43:53;;;;;;;0.10;0.10;;;5.90;99.90;;;;;;5050931;28;20495;-80
2021/11/29 10:46:33;;;;;;;0.00;0.00;;;5.80;99.90;;;;;;5050948;28;20025;-79
2021/11/29 10:49:07;;;;;;;0.00;0.00;;;5.90;99.90;;;;;;5050806;28;20025;-78
2021/11/29 10:51:34;;;;;;;0.10;0.08;;;5.90;99.90;;;;;;5051062;28;20028;-78
2021/11/29 10:54:03;;;;;;;0.05;0.05;;;6.10;99.90;;;;;;5057505;28;20475;-79
2021/11/29 10:56:31;;;;;;;0.00;0.00;;;6.20;99.90;;;;;;5049266;28;20096;-79
2021/11/29 10:59:01;;;;;;;0.00;0.00;;;6.30;99.90;;;;;;5054203;28;20060;-79
2021/11/29 11:01:54;;;;;;;0.00;0.00;;;6.40;99.90;;;;;;5051998;28;20068;-80
2021/11/29 11:04:29;;;;;;;0.00;0.00;;;6.40;99.90;;;;;;5055433;28;20072;-79
2021/11/29 11:07:08;;;;;;;0.00;0.00;;;6.60;99.90;;;;;;5060209;28;20032;-79
2021/11/29 11:09:36;;;;;;;0.00;0.00;;;6.80;99.90;;;;;;5054812;28;20024;-79
2021/11/29 11:12:03;;;;;;;0.00;0.00;;;7.10;99.90;;;;;;5050394;28;20480;-80
2021/11/29 11:14:47;;;;;;;0.00;0.00;;;7.10;99.90;;;;;;5049517;28;20020;-79
2021/11/29 11:17:13;;;;;;;0.00;0.00;;;6.90;99.90;;;;;;5048320;28;20083;-79
2021/11/29 11:20:04;;;;;;;0.00;0.00;;;6.90;99.90;;;;;;5056947;28;20115;-79
2021/11/29 11:22:34;;;;;;;0.22;0.22;;;7.10;99.90;;;;;;5051530;28;20120;-79
2021/11/29 11:25:07;;;;;;;0.00;0.00;;;6.80;99.90;;;;;;5051299;28;20049;-78
2021/11/29 11:27:53;;;;;;;0.00;0.00;;;6.60;99.90;;;;;;5050862;28;20043;-81
2021/11/29 11:30:19;;;;;;;0.00;0.00;;;6.80;99.90;;;;;;5045233;28;20025;-78
2021/11/29 11:32:57;;;;;;;1.35;1.00;;;7.00;99.90;;;;;;5051445;28;20100;-78
2021/11/29 11:35:31;;;;;;;0.47;0.47;;;7.30;99.90;;;;;;5060770;28;20059;-78
2021/11/29 11:38:00;;;;;;;0.60;0.60;;;7.70;99.90;;;;;;5050194;28;20054;-79
2021/11/29 11:40:31;;;;;;;0.20;0.20;;;8.00;99.90;;;;;;5050334;28;20041;-79
2021/11/29 11:42:58;;;;;;;0.40;0.40;;;8.10;99.90;;;;;;5052607;28;20033;-78
2021/11/29 11:45:30;;;;;;;0.28;0.28;;;8.10;99.90;;;;;;5050609;28;20566;-80
2021/11/29 11:47:59;;;;;;;2.08;1.45;;;7.40;99.90;;;;;;5049276;28;20036;-79
2021/11/29 11:50:28;;;;;;;0.70;0.43;;;7.00;99.90;;;;;;5051521;28;20448;-80
2021/11/29 11:52:58;;;;;;;0.20;0.20;;;6.80;99.90;;;;;;5049525;28;20027;-79
2021/11/29 11:55:30;;;;;;;1.10;0.80;;;7.30;99.90;;;;;;5047593;28;20021;-81
2021/11/29 11:57:57;;;;;;;0.77;0.63;;;7.00;99.90;;;;;;5046796;28;20500;-82
2021/11/29 12:00:58;;;;;;;0.00;0.00;;;7.10;99.90;;;;;;5043061;28;20047;-81
2021/11/29 12:03:28;;;;;;;0.10;0.10;;;7.10;99.90;;;;;;5046420;28;20032;-80
2021/11/29 12:06:13;;;;;;;0.13;0.13;;;6.80;99.90;;;;;;5046581;28;20025;-82
2021/11/29 12:08:47;;;;;;;0.10;0.05;;;6.70;99.90;;;;;;5051814;28;20052;-83
2021/11/29 12:11:26;;;;;;;0.00;0.00;;;6.80;99.90;;;;;;5048420;28;20412;-81
2021/11/29 12:14:13;;;;;;;0.20;0.20;;;6.50;99.90;;;;;;5050632;28;20116;-81
2021/11/29 12:16:51;;;;;;;1.75;0.65;;;6.40;99.90;;;;;;5052805;28;20099;-78
2021/11/29 12:19:28;;;;;;;0.40;0.40;;;6.30;99.90;;;;;;5053837;28;20025;-83
2021/11/29 12:22:01;;;;;;;1.13;0.75;;;6.20;99.90;;;;;;5048074;28;20039;-81
2021/11/29 12:24:42;;;;;;;0.00;0.00;;;6.40;99.90;;;;;;5056782;28;20108;-80
2021/11/29 12:27:10;;;;;;;0.43;0.13;;;6.40;99.90;;;;;;5056488;28;20408;-81
2021/11/29 12:29:39;;;;;;;0.08;0.08;;;6.40;99.90;;;;;;5053223;28;20021;-81
2021/11/29 12:32:04;;;;;;;0.00;0.00;;;6.50;99.90;;;;;;5055253;28;20028;-82
2021/11/29 12:34:52;;;;;;;0.45;0.20;;;6.70;99.90;;;;;;5058368;28;20021;-82
2021/11/29 12:37:32;;;;;;;0.00;0.00;;;6.80;99.90;;;;;;5061765;28;20368;-82
2021/11/29 12:40:12;;;;;;;2.08;0.30;;;6.90;99.90;;;;;;5056010;28;20091;-82
2021/11/29 12:42:37;;;;;;;0.22;0.22;;;6.70;99.90;;;;;;5054183;28;20047;-81
2021/11/29 12:45:14;;;;;;;0.10;0.10;;;6.90;99.90;;;;;;5054826;28;20384;-84
2021/11/29 12:47:42;;;;;;;0.32;0.32;;;6.90;99.90;;;;;;5052579;28;20502;-83
2021/11/29 12:50:39;;;;;;;0.00;0.00;;;6.60;99.90;;;;;;5056674;28;20036;-83
2021/11/29 12:53:07;;;;;;;0.08;0.08;;;6.60;99.90;;;;;;5050002;28;20475;-85
2021/11/29 12:55:33;;;;;;;0.10;0.10;;;6.50;99.90;;;;;;5058570;28;20036;-84
2021/11/29 12:58:10;;;;;;;0.57;0.20;;;6.80;99.90;;;;;;5055247;28;20028;-83
2021/11/29 13:00:51;;;;;;;0.00;0.00;;;7.30;99.90;;;;;;5045152;28;20051;-83
2021/11/29 13:03:24;;;;;;;0.10;0.10;;;7.20;99.90;;;;;;5052549;28;20017;-82
2021/11/29 13:05:59;;;;;;;0.22;0.22;;;7.20;99.90;;;;;;5052341;28;20029;-80